createdAt,value
2023-05-08T00:00:51.289Z,14.10
2023-05-08T00:05:55.806Z,14.10
2023-05-08T00:11:01.850Z,14.10
2023-05-08T00:16:09.356Z,14.10
2023-05-08T00:21:13.230Z,14.10
2023-05-08T00:26:16.771Z,14.00
2023-05-08T00:31:23.403Z,14.10
2023-05-08T00:36:27.631Z,14.00
2023-05-08T00:41:34.672Z,14.00
2023-05-08T00:46:43.167Z,14.10
2023-05-08T00:51:49.692Z,14.10
2023-05-08T00:56:54.502Z,14.30
2023-05-08T01:01:59.489Z,14.20
2023-05-08T01:07:08.332Z,14.10
2023-05-08T01:12:16.014Z,13.90
2023-05-08T01:17:27.326Z,13.90
2023-05-08T01:23:05.610Z,14.00
2023-05-08T01:28:29.934Z,14.00
2023-05-08T01:33:38.794Z,14.00
2023-05-08T01:38:48.076Z,13.90
2023-05-08T01:44:08.640Z,14.00
2023-05-08T01:49:16.779Z,14.10
2023-05-08T01:54:46.633Z,14.20
2023-05-08T01:59:49.725Z,14.10
2023-05-08T02:04:55.255Z,13.90
2023-05-08T02:09:59.310Z,14.00
2023-05-08T02:15:03.817Z,13.90
2023-05-08T02:20:15.008Z,13.90
2023-05-08T02:25:23.655Z,14.00
2023-05-08T02:30:27.444Z,13.90
2023-05-08T02:35:33.410Z,13.80
2023-05-08T02:40:37.737Z,13.80
2023-05-08T02:45:46.288Z,13.90
2023-05-08T02:50:58.952Z,13.90
2023-05-08T02:56:11.075Z,14.00
2023-05-08T03:01:20.157Z,14.00
2023-05-08T03:06:27.243Z,14.10
2023-05-08T03:11:35.082Z,14.10
2023-05-08T03:16:45.033Z,14.20
2023-05-08T03:21:51.080Z,14.30
2023-05-08T03:26:54.650Z,14.20
2023-05-08T03:31:59.354Z,14.30
2023-05-08T03:37:07.275Z,14.20
2023-05-08T03:42:22.730Z,14.10
2023-05-08T03:47:27.669Z,14.00
2023-05-08T03:52:33.601Z,14.00
2023-05-08T03:57:40.136Z,13.80
2023-05-08T04:02:48.857Z,13.90
2023-05-08T04:07:58.087Z,14.00
2023-05-08T04:13:06.614Z,14.10
2023-05-08T04:18:18.471Z,14.10
2023-05-08T04:23:23.479Z,14.10
2023-05-08T04:28:29.564Z,14.20
2023-05-08T04:33:34.222Z,14.20
2023-05-08T04:38:39.342Z,14.20
2023-05-08T04:43:47.264Z,14.20
2023-05-08T04:48:53.163Z,14.20
2023-05-08T04:53:58.410Z,14.30
2023-05-08T04:59:02.810Z,14.40
2023-05-08T05:04:10.123Z,13.90
2023-05-08T05:09:41.106Z,14.60
2023-05-08T05:14:44.703Z,14.60
2023-05-08T05:19:50.403Z,14.60
2023-05-08T05:24:56.882Z,14.80
2023-05-08T05:30:01.123Z,15.00
2023-05-08T05:35:05.489Z,15.00
2023-05-08T05:40:16.289Z,15.10
2023-05-08T05:45:21.522Z,15.30
2023-05-08T05:50:25.342Z,15.50
2023-05-08T05:55:30.729Z,15.60
2023-05-08T06:00:37.361Z,15.60
2023-05-08T06:05:41.488Z,15.70
2023-05-08T06:10:47.805Z,15.60
2023-05-08T06:15:51.897Z,15.70
2023-05-08T06:20:59.690Z,15.80
2023-05-08T06:26:06.633Z,16.20
2023-05-08T06:31:10.900Z,16.30
2023-05-08T06:36:15.340Z,16.40
2023-05-08T06:41:21.792Z,16.10
2023-05-08T06:46:25.809Z,16.20
2023-05-08T06:51:29.926Z,16.60
2023-05-08T06:56:35.286Z,17.00
2023-05-08T07:01:41.934Z,17.00
2023-05-08T07:06:59.436Z,16.70
2023-05-08T07:12:09.443Z,16.70
2023-05-08T07:17:15.710Z,16.60
2023-05-08T07:22:21.641Z,16.50
2023-05-08T07:27:35.100Z,16.80
2023-05-08T07:32:49.262Z,16.70
2023-05-08T07:37:59.402Z,16.80
2023-05-08T07:43:08.411Z,16.90
2023-05-08T07:48:15.406Z,17.40
2023-05-08T07:53:19.610Z,17.60
2023-05-08T07:58:24.733Z,18.00
2023-05-08T08:03:30.564Z,18.00
2023-05-08T08:08:38.632Z,17.80
2023-05-08T08:13:44.966Z,17.90
2023-05-08T08:18:49.848Z,17.80
2023-05-08T08:23:53.360Z,18.10
2023-05-08T08:28:58.580Z,18.50
2023-05-08T08:34:02.413Z,18.80
2023-05-08T08:39:06.214Z,18.60
2023-05-08T08:44:10.981Z,19.10
2023-05-08T08:49:16.540Z,19.10
2023-05-08T08:54:22.764Z,19.20
2023-05-08T08:59:29.959Z,19.40
2023-05-08T09:04:35.092Z,19.40
2023-05-08T09:09:41.019Z,19.20
2023-05-08T09:14:47.320Z,19.60
2023-05-08T09:19:52.999Z,19.90
2023-05-08T09:24:58.060Z,19.80
2023-05-08T09:30:05.923Z,20.30
2023-05-08T09:35:10.415Z,20.40
2023-05-08T09:40:18.313Z,20.40
2023-05-08T09:45:30.081Z,21.00
2023-05-08T09:50:34.681Z,21.30
2023-05-08T09:55:50.521Z,22.10
2023-05-08T10:00:55.747Z,22.20
2023-05-08T10:06:13.699Z,22.80
2023-05-08T10:11:21.993Z,23.10
2023-05-08T10:16:27.056Z,23.20
2023-05-08T10:21:31.624Z,23.30
2023-05-08T10:26:38.893Z,24.10
2023-05-08T10:31:45.658Z,24.00
2023-05-08T10:36:50.199Z,22.90
2023-05-08T10:42:00.400Z,21.80
2023-05-08T10:47:09.551Z,21.40
2023-05-08T10:52:17.652Z,21.90
2023-05-08T10:57:21.303Z,22.00
2023-05-08T11:02:30.452Z,22.40
2023-05-08T11:07:56.046Z,22.60
2023-05-08T11:13:00.152Z,22.70
2023-05-08T11:18:11.745Z,22.20
2023-05-08T11:23:25.369Z,22.00
2023-05-08T11:28:29.713Z,21.20
2023-05-08T11:33:37.893Z,21.60
2023-05-08T11:38:43.554Z,21.30
2023-05-08T11:44:14.869Z,21.50
2023-05-08T11:49:26.942Z,21.60
2023-05-08T11:54:32.813Z,21.50
2023-05-08T11:59:38.013Z,21.90
2023-05-08T12:04:46.924Z,22.10
2023-05-08T12:09:51.695Z,22.60
2023-05-08T12:14:56.978Z,23.00
2023-05-08T12:20:23.340Z,22.60
2023-05-08T12:25:29.689Z,23.10
2023-05-08T12:30:36.589Z,23.20
2023-05-08T12:35:44.956Z,23.40
2023-05-08T12:40:49.271Z,24.00
2023-05-08T12:45:54.137Z,24.40
2023-05-08T12:51:03.945Z,25.80
2023-05-08T12:56:10.813Z,26.70
2023-05-08T13:01:14.714Z,27.30
2023-05-08T13:06:23.233Z,24.90
2023-05-08T13:11:31.418Z,24.30
2023-05-08T13:16:44.577Z,25.00
2023-05-08T13:21:51.015Z,24.60
2023-05-08T13:26:54.436Z,24.40
2023-05-08T13:31:59.039Z,26.30
2023-05-08T13:37:04.359Z,28.20
2023-05-08T13:42:08.078Z,28.80
2023-05-08T13:47:12.086Z,29.60
2023-05-08T13:52:18.365Z,26.40
2023-05-08T13:57:22.221Z,24.60
2023-05-08T14:02:26.288Z,26.40
2023-05-08T14:07:32.084Z,26.70
2023-05-08T14:12:40.287Z,27.10
2023-05-08T14:17:44.920Z,27.40
2023-05-08T14:22:49.755Z,25.00
2023-05-08T14:27:53.504Z,25.10
2023-05-08T14:32:57.975Z,23.80
2023-05-08T14:38:03.230Z,22.20
2023-05-08T14:43:06.950Z,21.70
2023-05-08T14:48:11.153Z,21.90
2023-05-08T14:53:16.479Z,21.80
2023-05-08T14:58:20.688Z,21.70
2023-05-08T15:03:24.633Z,21.50
2023-05-08T15:08:29.992Z,21.10
2023-05-08T15:13:34.056Z,21.00
2023-05-08T15:18:37.492Z,21.00
2023-05-08T15:23:42.428Z,20.80
2023-05-08T15:28:51.186Z,20.50
2023-05-08T15:33:55.154Z,20.50
2023-05-08T15:39:00.506Z,20.20
2023-05-08T15:44:06.391Z,20.00
2023-05-08T15:49:10.729Z,20.20
2023-05-08T15:54:18.160Z,20.30
2023-05-08T15:59:23.374Z,20.20
2023-05-08T16:04:29.065Z,20.40
2023-05-08T16:09:34.581Z,20.20
2023-05-08T16:14:38.689Z,19.90
2023-05-08T16:19:42.740Z,20.40
2023-05-08T16:24:48.601Z,21.00
2023-05-08T16:29:55.044Z,20.40
2023-05-08T16:35:00.386Z,19.60
2023-05-08T16:40:06.633Z,19.20
2023-05-08T16:45:11.592Z,19.10
2023-05-08T16:50:15.454Z,18.90
2023-05-08T16:55:21.143Z,18.70
2023-05-08T17:00:25.465Z,18.40
2023-05-08T17:05:28.771Z,18.50
2023-05-08T17:10:34.778Z,18.70
2023-05-08T17:15:39.051Z,18.70
2023-05-08T17:20:42.574Z,18.70
2023-05-08T17:25:48.931Z,18.70
2023-05-08T17:30:52.606Z,18.80
2023-05-08T17:35:57.325Z,18.90
2023-05-08T17:41:02.701Z,18.50
2023-05-08T17:46:07.461Z,18.80
2023-05-08T17:51:17.971Z,18.70
2023-05-08T17:56:23.714Z,18.50
2023-05-08T18:01:29.508Z,18.50
2023-05-08T18:06:32.966Z,18.50
2023-05-08T18:11:39.000Z,18.60
2023-05-08T18:16:42.854Z,18.70
2023-05-08T18:21:46.400Z,18.50
2023-05-08T18:26:52.763Z,18.40
2023-05-08T18:31:56.283Z,18.20
2023-05-08T18:37:00.892Z,18.00
2023-05-08T18:42:05.883Z,17.90
2023-05-08T18:47:09.988Z,17.90
2023-05-08T18:52:15.197Z,17.60
2023-05-08T18:57:20.461Z,17.50
2023-05-08T19:02:24.898Z,17.40
2023-05-08T19:07:28.919Z,17.40
2023-05-08T19:12:34.244Z,17.40
2023-05-08T19:17:38.202Z,17.30
2023-05-08T19:22:42.043Z,17.30
2023-05-08T19:27:47.360Z,17.10
2023-05-08T19:32:53.043Z,17.10
2023-05-08T19:37:57.469Z,16.80
2023-05-08T19:43:04.118Z,17.10
2023-05-08T19:48:16.192Z,17.10
2023-05-08T19:53:25.929Z,17.00
2023-05-08T19:58:31.032Z,17.10
2023-05-08T20:04:40.029Z,16.90
2023-05-08T20:10:03.640Z,16.90
2023-05-08T20:15:33.264Z,16.80
2023-05-08T20:20:38.974Z,16.90
2023-05-08T20:32:26.989Z,16.90
2023-05-08T20:37:34.705Z,16.90
2023-05-08T20:42:41.167Z,16.50
2023-05-08T20:47:47.379Z,16.40
2023-05-08T20:52:52.633Z,16.20
2023-05-08T20:57:56.787Z,16.00
2023-05-08T21:03:01.988Z,15.90
2023-05-08T21:08:10.402Z,16.00
2023-05-08T21:13:14.826Z,15.90
2023-05-08T21:18:21.990Z,16.10
2023-05-08T21:23:31.522Z,16.10
2023-05-08T21:28:35.504Z,16.00
2023-05-08T21:40:58.675Z,15.80
2023-05-08T21:46:09.408Z,15.70
2023-05-08T21:51:14.522Z,15.70
2023-05-08T21:56:21.112Z,15.70
2023-05-08T22:01:25.939Z,15.60
2023-05-08T22:06:30.909Z,15.60
2023-05-08T22:11:38.230Z,15.60
2023-05-08T22:16:42.991Z,15.60
2023-05-08T22:21:46.743Z,15.60
2023-05-08T22:26:56.037Z,15.60
2023-05-08T22:37:39.878Z,15.80
2023-05-08T22:43:23.878Z,16.20
2023-05-08T22:48:32.308Z,15.50
2023-05-08T22:53:37.178Z,15.30
2023-05-08T22:59:00.960Z,15.50
2023-05-08T23:04:13.471Z,15.30
2023-05-08T23:10:01.647Z,15.40
2023-05-08T23:15:29.542Z,15.30
2023-05-08T23:20:40.350Z,15.10
2023-05-08T23:26:06.266Z,15.30
2023-05-08T23:32:05.965Z,15.20
2023-05-08T23:37:28.060Z,15.70
2023-05-08T23:42:58.000Z,15.30
2023-05-08T23:48:10.201Z,13.80
2023-05-08T23:54:02.715Z,14.90
2023-05-08T23:59:30.742Z,16.60
